sensor_id;sensor_type;location;lat;lon;timestamp;P1;durP1;ratioP1;P2;durP2;ratioP2
77402;SDS011;66472;53.046;8.656;2023-02-04T00:00:35;14.80;;;6.80;;
77402;SDS011;66472;53.046;8.656;2023-02-04T00:05:32;19.13;;;7.23;;
77402;SDS011;66472;53.046;8.656;2023-02-04T00:10:28;8.87;;;6.63;;
77402;SDS011;66472;53.046;8.656;2023-02-04T00:15:23;13.20;;;7.03;;
77402;SDS011;66472;53.046;8.656;2023-02-04T00:20:18;17.85;;;6.93;;
77402;SDS011;66472;53.046;8.656;2023-02-04T00:25:14;13.10;;;7.60;;
77402;SDS011;66472;53.046;8.656;2023-02-04T00:30:09;16.08;;;7.30;;
77402;SDS011;66472;53.046;8.656;2023-02-04T00:35:04;18.80;;;7.00;;
77402;SDS011;66472;53.046;8.656;2023-02-04T00:40:00;18.60;;;6.70;;
77402;SDS011;66472;53.046;8.656;2023-02-04T00:44:55;10.55;;;7.05;;
77402;SDS011;66472;53.046;8.656;2023-02-04T00:49:52;10.20;;;6.80;;
77402;SDS011;66472;53.046;8.656;2023-02-04T00:54:47;9.55;;;6.97;;
77402;SDS011;66472;53.046;8.656;2023-02-04T00:59:42;11.20;;;7.13;;
77402;SDS011;66472;53.046;8.656;2023-02-04T01:04:37;12.25;;;7.00;;
77402;SDS011;66472;53.046;8.656;2023-02-04T01:09:33;11.87;;;6.23;;
77402;SDS011;66472;53.046;8.656;2023-02-04T01:14:28;13.77;;;7.43;;
77402;SDS011;66472;53.046;8.656;2023-02-04T01:19:23;18.35;;;7.97;;
77402;SDS011;66472;53.046;8.656;2023-02-04T01:24:19;14.33;;;8.43;;
77402;SDS011;66472;53.046;8.656;2023-02-04T01:29:37;9.03;;;8.33;;
77402;SDS011;66472;53.046;8.656;2023-02-04T01:34:32;10.45;;;7.18;;
77402;SDS011;66472;53.046;8.656;2023-02-04T01:39:28;13.38;;;8.05;;
77402;SDS011;66472;53.046;8.656;2023-02-04T01:44:23;8.18;;;7.40;;
77402;SDS011;66472;53.046;8.656;2023-02-04T01:49:18;9.93;;;8.73;;
77402;SDS011;66472;53.046;8.656;2023-02-04T01:54:14;6.43;;;5.93;;
77402;SDS011;66472;53.046;8.656;2023-02-04T01:59:12;9.83;;;6.83;;
77402;SDS011;66472;53.046;8.656;2023-02-04T02:04:08;13.80;;;7.03;;
77402;SDS011;66472;53.046;8.656;2023-02-04T02:09:04;8.93;;;7.37;;
77402;SDS011;66472;53.046;8.656;2023-02-04T02:13:59;8.50;;;7.47;;
77402;SDS011;66472;53.046;8.656;2023-02-04T02:18:55;8.10;;;6.77;;
77402;SDS011;66472;53.046;8.656;2023-02-04T02:23:52;6.90;;;6.40;;
77402;SDS011;66472;53.046;8.656;2023-02-04T02:28:48;8.77;;;5.93;;
77402;SDS011;66472;53.046;8.656;2023-02-04T02:33:44;11.50;;;6.87;;
77402;SDS011;66472;53.046;8.656;2023-02-04T02:38:39;10.63;;;6.70;;
77402;SDS011;66472;53.046;8.656;2023-02-04T02:43:35;14.03;;;6.73;;
77402;SDS011;66472;53.046;8.656;2023-02-04T02:48:33;7.63;;;6.07;;
77402;SDS011;66472;53.046;8.656;2023-02-04T02:53:29;10.77;;;6.33;;
77402;SDS011;66472;53.046;8.656;2023-02-04T02:58:28;9.07;;;7.13;;
77402;SDS011;66472;53.046;8.656;2023-02-04T03:03:27;7.73;;;6.73;;
77402;SDS011;66472;53.046;8.656;2023-02-04T03:08:24;7.67;;;6.27;;
77402;SDS011;66472;53.046;8.656;2023-02-04T03:13:20;7.87;;;6.20;;
77402;SDS011;66472;53.046;8.656;2023-02-04T03:18:16;9.27;;;6.07;;
77402;SDS011;66472;53.046;8.656;2023-02-04T03:23:13;12.80;;;7.03;;
77402;SDS011;66472;53.046;8.656;2023-02-04T03:28:10;7.60;;;6.87;;
77402;SDS011;66472;53.046;8.656;2023-02-04T03:33:05;7.07;;;6.37;;
77402;SDS011;66472;53.046;8.656;2023-02-04T03:38:00;14.93;;;5.75;;
77402;SDS011;66472;53.046;8.656;2023-02-04T03:42:56;6.47;;;5.88;;
77402;SDS011;66472;53.046;8.656;2023-02-04T03:47:51;8.30;;;6.03;;
77402;SDS011;66472;53.046;8.656;2023-02-04T03:52:46;11.80;;;5.97;;
77402;SDS011;66472;53.046;8.656;2023-02-04T03:57:44;8.03;;;7.43;;
77402;SDS011;66472;53.046;8.656;2023-02-04T04:02:39;8.20;;;6.27;;
77402;SDS011;66472;53.046;8.656;2023-02-04T04:07:35;9.33;;;6.27;;
77402;SDS011;66472;53.046;8.656;2023-02-04T04:12:30;7.63;;;6.87;;
77402;SDS011;66472;53.046;8.656;2023-02-04T04:17:26;7.73;;;6.37;;
77402;SDS011;66472;53.046;8.656;2023-02-04T04:22:21;8.23;;;7.67;;
77402;SDS011;66472;53.046;8.656;2023-02-04T04:27:17;9.20;;;6.85;;
77402;SDS011;66472;53.046;8.656;2023-02-04T04:32:12;7.60;;;6.87;;
77402;SDS011;66472;53.046;8.656;2023-02-04T04:37:07;9.07;;;6.57;;
77402;SDS011;66472;53.046;8.656;2023-02-04T04:42:03;6.60;;;5.97;;
77402;SDS011;66472;53.046;8.656;2023-02-04T04:46:58;7.18;;;5.78;;
77402;SDS011;66472;53.046;8.656;2023-02-04T04:51:53;9.00;;;6.47;;
77402;SDS011;66472;53.046;8.656;2023-02-04T04:56:48;11.35;;;6.15;;
77402;SDS011;66472;53.046;8.656;2023-02-04T05:01:44;6.45;;;5.95;;
77402;SDS011;66472;53.046;8.656;2023-02-04T05:06:39;5.88;;;5.47;;
77402;SDS011;66472;53.046;8.656;2023-02-04T05:11:34;6.20;;;5.80;;
77402;SDS011;66472;53.046;8.656;2023-02-04T05:16:29;6.90;;;6.30;;
77402;SDS011;66472;53.046;8.656;2023-02-04T05:21:25;6.60;;;6.07;;
77402;SDS011;66472;53.046;8.656;2023-02-04T05:26:20;6.93;;;6.20;;
77402;SDS011;66472;53.046;8.656;2023-02-04T05:31:15;6.53;;;6.00;;
77402;SDS011;66472;53.046;8.656;2023-02-04T05:36:11;8.95;;;7.95;;
77402;SDS011;66472;53.046;8.656;2023-02-04T05:41:06;8.68;;;7.13;;
77402;SDS011;66472;53.046;8.656;2023-02-04T05:46:01;10.50;;;6.77;;
77402;SDS011;66472;53.046;8.656;2023-02-04T05:50:56;8.93;;;7.40;;
77402;SDS011;66472;53.046;8.656;2023-02-04T05:55:52;8.75;;;6.95;;
77402;SDS011;66472;53.046;8.656;2023-02-04T06:00:47;7.88;;;6.75;;
77402;SDS011;66472;53.046;8.656;2023-02-04T06:05:42;7.97;;;7.10;;
77402;SDS011;66472;53.046;8.656;2023-02-04T06:10:38;9.53;;;7.10;;
77402;SDS011;66472;53.046;8.656;2023-02-04T06:15:33;8.52;;;7.93;;
77402;SDS011;66472;53.046;8.656;2023-02-04T06:20:28;7.53;;;6.93;;
77402;SDS011;66472;53.046;8.656;2023-02-04T06:25:24;11.07;;;7.10;;
77402;SDS011;66472;53.046;8.656;2023-02-04T06:30:19;6.87;;;6.27;;
77402;SDS011;66472;53.046;8.656;2023-02-04T06:35:14;7.50;;;6.80;;
77402;SDS011;66472;53.046;8.656;2023-02-04T06:40:10;7.20;;;6.47;;
77402;SDS011;66472;53.046;8.656;2023-02-04T06:45:06;8.33;;;7.63;;
77402;SDS011;66472;53.046;8.656;2023-02-04T06:50:01;8.53;;;7.37;;
77402;SDS011;66472;53.046;8.656;2023-02-04T06:54:57;7.82;;;7.03;;
77402;SDS011;66472;53.046;8.656;2023-02-04T06:59:52;8.80;;;6.40;;
77402;SDS011;66472;53.046;8.656;2023-02-04T07:04:47;7.18;;;6.57;;
77402;SDS011;66472;53.046;8.656;2023-02-04T07:09:43;8.90;;;8.07;;
77402;SDS011;66472;53.046;8.656;2023-02-04T07:14:38;9.80;;;7.23;;
77402;SDS011;66472;53.046;8.656;2023-02-04T07:19:34;10.05;;;9.15;;
77402;SDS011;66472;53.046;8.656;2023-02-04T07:24:30;10.53;;;9.53;;
77402;SDS011;66472;53.046;8.656;2023-02-04T07:29:25;11.73;;;10.43;;
77402;SDS011;66472;53.046;8.656;2023-02-04T07:34:21;10.47;;;9.47;;
77402;SDS011;66472;53.046;8.656;2023-02-04T07:39:19;8.90;;;8.10;;
77402;SDS011;66472;53.046;8.656;2023-02-04T07:44:14;13.50;;;10.23;;
77402;SDS011;66472;53.046;8.656;2023-02-04T07:49:09;11.80;;;9.77;;
77402;SDS011;66472;53.046;8.656;2023-02-04T07:54:05;10.57;;;8.47;;
77402;SDS011;66472;53.046;8.656;2023-02-04T07:59:00;11.25;;;10.23;;
77402;SDS011;66472;53.046;8.656;2023-02-04T08:03:55;10.95;;;9.95;;
77402;SDS011;66472;53.046;8.656;2023-02-04T08:08:51;10.77;;;9.47;;
77402;SDS011;66472;53.046;8.656;2023-02-04T08:13:46;9.73;;;8.73;;
77402;SDS011;66472;53.046;8.656;2023-02-04T08:18:42;9.30;;;8.52;;
77402;SDS011;66472;53.046;8.656;2023-02-04T08:23:37;14.05;;;9.73;;
77402;SDS011;66472;53.046;8.656;2023-02-04T08:28:36;14.53;;;13.03;;
77402;SDS011;66472;53.046;8.656;2023-02-04T08:33:32;9.73;;;9.03;;
77402;SDS011;66472;53.046;8.656;2023-02-04T08:38:27;11.53;;;10.43;;
77402;SDS011;66472;53.046;8.656;2023-02-04T08:43:23;13.90;;;11.13;;
77402;SDS011;66472;53.046;8.656;2023-02-04T08:48:18;10.65;;;9.75;;
77402;SDS011;66472;53.046;8.656;2023-02-04T08:53:13;9.03;;;8.43;;
77402;SDS011;66472;53.046;8.656;2023-02-04T08:58:09;9.10;;;8.23;;
77402;SDS011;66472;53.046;8.656;2023-02-04T09:03:04;17.70;;;14.17;;
77402;SDS011;66472;53.046;8.656;2023-02-04T09:08:00;12.20;;;11.10;;
77402;SDS011;66472;53.046;8.656;2023-02-04T09:12:55;8.47;;;7.70;;
77402;SDS011;66472;53.046;8.656;2023-02-04T09:17:50;38.70;;;24.23;;
77402;SDS011;66472;53.046;8.656;2023-02-04T09:22:48;7.67;;;6.97;;
77402;SDS011;66472;53.046;8.656;2023-02-04T09:27:44;22.53;;;15.53;;
77402;SDS011;66472;53.046;8.656;2023-02-04T09:32:39;19.43;;;13.00;;
77402;SDS011;66472;53.046;8.656;2023-02-04T09:37:35;8.40;;;7.53;;
77402;SDS011;66472;53.046;8.656;2023-02-04T09:42:31;8.15;;;7.35;;
77402;SDS011;66472;53.046;8.656;2023-02-04T09:47:26;8.23;;;7.53;;
77402;SDS011;66472;53.046;8.656;2023-02-04T09:52:21;12.47;;;8.90;;
77402;SDS011;66472;53.046;8.656;2023-02-04T09:57:19;7.87;;;7.17;;
77402;SDS011;66472;53.046;8.656;2023-02-04T10:02:23;14.50;;;11.43;;
77402;SDS011;66472;53.046;8.656;2023-02-04T10:07:19;6.17;;;5.77;;
77402;SDS011;66472;53.046;8.656;2023-02-04T10:12:18;5.27;;;4.90;;
77402;SDS011;66472;53.046;8.656;2023-02-04T10:17:14;5.80;;;5.30;;
77402;SDS011;66472;53.046;8.656;2023-02-04T10:22:15;5.47;;;4.97;;
77402;SDS011;66472;53.046;8.656;2023-02-04T10:27:12;5.27;;;4.77;;
77402;SDS011;66472;53.046;8.656;2023-02-04T10:37:24;5.27;;;4.87;;
77402;SDS011;66472;53.046;8.656;2023-02-04T10:42:20;4.77;;;4.47;;
77402;SDS011;66472;53.046;8.656;2023-02-04T10:47:17;4.10;;;3.70;;
77402;SDS011;66472;53.046;8.656;2023-02-04T10:52:14;4.33;;;4.03;;
77402;SDS011;66472;53.046;8.656;2023-02-04T11:02:51;4.27;;;3.97;;
77402;SDS011;66472;53.046;8.656;2023-02-04T11:07:24;4.30;;;4.00;;
77402;SDS011;66472;53.046;8.656;2023-02-04T11:12:35;4.57;;;4.17;;
77402;SDS011;66472;53.046;8.656;2023-02-04T11:17:33;3.83;;;3.63;;
77402;SDS011;66472;53.046;8.656;2023-02-04T11:22:40;3.83;;;3.57;;
77402;SDS011;66472;53.046;8.656;2023-02-04T11:27:38;4.17;;;3.77;;
77402;SDS011;66472;53.046;8.656;2023-02-04T11:32:34;3.20;;;3.00;;
77402;SDS011;66472;53.046;8.656;2023-02-04T11:42:32;3.50;;;3.20;;
77402;SDS011;66472;53.046;8.656;2023-02-04T11:47:34;9.40;;;6.30;;
77402;SDS011;66472;53.046;8.656;2023-02-04T11:52:33;5.83;;;3.13;;
77402;SDS011;66472;53.046;8.656;2023-02-04T11:57:29;5.87;;;4.10;;
77402;SDS011;66472;53.046;8.656;2023-02-04T12:02:40;3.67;;;3.37;;
77402;SDS011;66472;53.046;8.656;2023-02-04T12:07:37;3.30;;;3.03;;
77402;SDS011;66472;53.046;8.656;2023-02-04T12:12:39;5.67;;;3.77;;
77402;SDS011;66472;53.046;8.656;2023-02-04T12:17:35;6.10;;;3.20;;
77402;SDS011;66472;53.046;8.656;2023-02-04T12:22:30;2.77;;;2.57;;
77402;SDS011;66472;53.046;8.656;2023-02-04T12:27:25;3.63;;;3.33;;
77402;SDS011;66472;53.046;8.656;2023-02-04T12:32:21;4.17;;;3.27;;
77402;SDS011;66472;53.046;8.656;2023-02-04T12:37:16;6.23;;;3.93;;
77402;SDS011;66472;53.046;8.656;2023-02-04T12:42:11;3.40;;;3.10;;
77402;SDS011;66472;53.046;8.656;2023-02-04T12:47:07;3.45;;;3.25;;
77402;SDS011;66472;53.046;8.656;2023-02-04T12:52:03;4.83;;;3.93;;
77402;SDS011;66472;53.046;8.656;2023-02-04T12:56:58;3.33;;;3.03;;
77402;SDS011;66472;53.046;8.656;2023-02-04T13:01:53;5.57;;;3.90;;
77402;SDS011;66472;53.046;8.656;2023-02-04T13:06:49;4.45;;;4.15;;
77402;SDS011;66472;53.046;8.656;2023-02-04T13:11:44;4.83;;;4.40;;
77402;SDS011;66472;53.046;8.656;2023-02-04T13:16:39;3.30;;;3.10;;
77402;SDS011;66472;53.046;8.656;2023-02-04T13:21:34;3.90;;;3.60;;
77402;SDS011;66472;53.046;8.656;2023-02-04T13:26:30;3.93;;;3.63;;
77402;SDS011;66472;53.046;8.656;2023-02-04T13:31:25;5.88;;;3.75;;
77402;SDS011;66472;53.046;8.656;2023-02-04T13:36:20;7.05;;;3.92;;
77402;SDS011;66472;53.046;8.656;2023-02-04T13:41:16;3.67;;;3.40;;
77402;SDS011;66472;53.046;8.656;2023-02-04T13:46:11;4.50;;;3.50;;
77402;SDS011;66472;53.046;8.656;2023-02-04T13:51:06;3.73;;;3.50;;
77402;SDS011;66472;53.046;8.656;2023-02-04T13:56:02;4.20;;;3.90;;
77402;SDS011;66472;53.046;8.656;2023-02-04T14:00:57;4.13;;;3.87;;
77402;SDS011;66472;53.046;8.656;2023-02-04T14:05:53;7.43;;;3.30;;
77402;SDS011;66472;53.046;8.656;2023-02-04T14:10:48;4.27;;;3.87;;
77402;SDS011;66472;53.046;8.656;2023-02-04T14:15:43;3.63;;;3.23;;
77402;SDS011;66472;53.046;8.656;2023-02-04T14:20:39;4.03;;;3.80;;
77402;SDS011;66472;53.046;8.656;2023-02-04T14:25:34;4.20;;;3.77;;
77402;SDS011;66472;53.046;8.656;2023-02-04T14:30:30;5.07;;;3.80;;
77402;SDS011;66472;53.046;8.656;2023-02-04T14:35:25;3.87;;;3.57;;
77402;SDS011;66472;53.046;8.656;2023-02-04T14:40:21;4.40;;;4.03;;
77402;SDS011;66472;53.046;8.656;2023-02-04T14:45:16;6.80;;;6.30;;
77402;SDS011;66472;53.046;8.656;2023-02-04T14:50:13;3.70;;;3.47;;
77402;SDS011;66472;53.046;8.656;2023-02-04T14:55:09;4.33;;;3.97;;
77402;SDS011;66472;53.046;8.656;2023-02-04T15:00:06;4.07;;;3.87;;
77402;SDS011;66472;53.046;8.656;2023-02-04T15:05:01;4.10;;;3.70;;
77402;SDS011;66472;53.046;8.656;2023-02-04T15:09:56;3.77;;;3.47;;
77402;SDS011;66472;53.046;8.656;2023-02-04T15:14:53;4.47;;;4.17;;
77402;SDS011;66472;53.046;8.656;2023-02-04T15:19:48;4.13;;;3.83;;
77402;SDS011;66472;53.046;8.656;2023-02-04T15:24:43;4.80;;;4.40;;
77402;SDS011;66472;53.046;8.656;2023-02-04T15:29:39;3.70;;;3.40;;
77402;SDS011;66472;53.046;8.656;2023-02-04T15:34:34;4.33;;;3.93;;
77402;SDS011;66472;53.046;8.656;2023-02-04T15:39:30;4.53;;;4.23;;
77402;SDS011;66472;53.046;8.656;2023-02-04T15:44:25;4.67;;;4.27;;
77402;SDS011;66472;53.046;8.656;2023-02-04T15:49:21;4.67;;;4.00;;
77402;SDS011;66472;53.046;8.656;2023-02-04T15:54:16;4.43;;;4.13;;
77402;SDS011;66472;53.046;8.656;2023-02-04T15:59:11;5.40;;;4.20;;
77402;SDS011;66472;53.046;8.656;2023-02-04T16:04:07;6.33;;;4.97;;
77402;SDS011;66472;53.046;8.656;2023-02-04T16:09:03;4.27;;;3.97;;
77402;SDS011;66472;53.046;8.656;2023-02-04T16:13:59;6.20;;;5.70;;
77402;SDS011;66472;53.046;8.656;2023-02-04T16:18:54;5.03;;;4.60;;
77402;SDS011;66472;53.046;8.656;2023-02-04T16:23:49;6.27;;;5.67;;
77402;SDS011;66472;53.046;8.656;2023-02-04T16:28:45;6.55;;;5.03;;
77402;SDS011;66472;53.046;8.656;2023-02-04T16:33:43;6.73;;;5.47;;
77402;SDS011;66472;53.046;8.656;2023-02-04T16:38:39;6.10;;;4.90;;
77402;SDS011;66472;53.046;8.656;2023-02-04T16:43:34;6.20;;;5.70;;
77402;SDS011;66472;53.046;8.656;2023-02-04T16:48:30;4.47;;;4.20;;
77402;SDS011;66472;53.046;8.656;2023-02-04T16:53:25;5.37;;;4.87;;
77402;SDS011;66472;53.046;8.656;2023-02-04T16:58:21;5.73;;;5.23;;
77402;SDS011;66472;53.046;8.656;2023-02-04T17:03:16;5.67;;;4.80;;
77402;SDS011;66472;53.046;8.656;2023-02-04T17:08:11;6.05;;;5.45;;
77402;SDS011;66472;53.046;8.656;2023-02-04T17:13:09;7.77;;;7.03;;
77402;SDS011;66472;53.046;8.656;2023-02-04T17:18:04;8.17;;;6.87;;
77402;SDS011;66472;53.046;8.656;2023-02-04T17:22:59;8.77;;;7.82;;
77402;SDS011;66472;53.046;8.656;2023-02-04T17:27:55;6.70;;;6.10;;
77402;SDS011;66472;53.046;8.656;2023-02-04T17:32:50;8.77;;;7.47;;
77402;SDS011;66472;53.046;8.656;2023-02-04T17:37:46;9.80;;;7.43;;
77402;SDS011;66472;53.046;8.656;2023-02-04T17:42:41;7.67;;;6.97;;
77402;SDS011;66472;53.046;8.656;2023-02-04T17:47:37;9.05;;;8.15;;
77402;SDS011;66472;53.046;8.656;2023-02-04T17:52:32;8.83;;;8.03;;
77402;SDS011;66472;53.046;8.656;2023-02-04T17:57:28;8.97;;;8.17;;
77402;SDS011;66472;53.046;8.656;2023-02-04T18:07:19;8.30;;;7.40;;
77402;SDS011;66472;53.046;8.656;2023-02-04T18:12:17;11.37;;;8.97;;
77402;SDS011;66472;53.046;8.656;2023-02-04T18:17:14;10.03;;;8.00;;
77402;SDS011;66472;53.046;8.656;2023-02-04T18:22:11;7.70;;;6.43;;
77402;SDS011;66472;53.046;8.656;2023-02-04T18:32:12;8.97;;;7.33;;
77402;SDS011;66472;53.046;8.656;2023-02-04T18:37:20;8.30;;;6.60;;
77402;SDS011;66472;53.046;8.656;2023-02-04T18:42:19;8.10;;;7.00;;
77402;SDS011;66472;53.046;8.656;2023-02-04T18:47:29;9.93;;;7.73;;
77402;SDS011;66472;53.046;8.656;2023-02-04T18:52:25;13.00;;;10.07;;
77402;SDS011;66472;53.046;8.656;2023-02-04T18:57:39;12.90;;;9.63;;
77402;SDS011;66472;53.046;8.656;2023-02-04T19:02:35;13.00;;;9.37;;
77402;SDS011;66472;53.046;8.656;2023-02-04T19:07:33;16.33;;;9.83;;
77402;SDS011;66472;53.046;8.656;2023-02-04T19:12:28;12.73;;;8.77;;
77402;SDS011;66472;53.046;8.656;2023-02-04T19:17:25;10.40;;;7.77;;
77402;SDS011;66472;53.046;8.656;2023-02-04T19:22:25;10.60;;;7.63;;
77402;SDS011;66472;53.046;8.656;2023-02-04T19:27:25;8.73;;;7.67;;
77402;SDS011;66472;53.046;8.656;2023-02-04T19:32:23;12.17;;;8.90;;
77402;SDS011;66472;53.046;8.656;2023-02-04T19:42:38;14.50;;;8.63;;
77402;SDS011;66472;53.046;8.656;2023-02-04T19:52:34;10.27;;;8.43;;
77402;SDS011;66472;53.046;8.656;2023-02-04T19:57:29;8.77;;;7.87;;
77402;SDS011;66472;53.046;8.656;2023-02-04T20:02:31;11.33;;;9.30;;
77402;SDS011;66472;53.046;8.656;2023-02-04T20:07:28;11.97;;;8.87;;
77402;SDS011;66472;53.046;8.656;2023-02-04T20:12:23;9.10;;;8.10;;
77402;SDS011;66472;53.046;8.656;2023-02-04T20:17:20;12.47;;;8.77;;
77402;SDS011;66472;53.046;8.656;2023-02-04T20:27:14;8.87;;;7.97;;
77402;SDS011;66472;53.046;8.656;2023-02-04T20:32:21;11.47;;;8.07;;
77402;SDS011;66472;53.046;8.656;2023-02-04T20:37:25;10.73;;;7.90;;
77402;SDS011;66472;53.046;8.656;2023-02-04T20:42:25;10.90;;;8.57;;
77402;SDS011;66472;53.046;8.656;2023-02-04T20:47:22;8.90;;;8.00;;
77402;SDS011;66472;53.046;8.656;2023-02-04T20:57:32;10.70;;;8.20;;
77402;SDS011;66472;53.046;8.656;2023-02-04T21:02:28;10.47;;;7.63;;
77402;SDS011;66472;53.046;8.656;2023-02-04T21:07:23;15.07;;;9.00;;
77402;SDS011;66472;53.046;8.656;2023-02-04T21:12:19;13.07;;;8.23;;
77402;SDS011;66472;53.046;8.656;2023-02-04T21:17:15;15.87;;;9.80;;
77402;SDS011;66472;53.046;8.656;2023-02-04T21:22:11;12.80;;;9.50;;
77402;SDS011;66472;53.046;8.656;2023-02-04T21:27:06;13.83;;;7.77;;
77402;SDS011;66472;53.046;8.656;2023-02-04T21:32:01;8.37;;;7.57;;
77402;SDS011;66472;53.046;8.656;2023-02-04T21:36:56;11.05;;;8.57;;
77402;SDS011;66472;53.046;8.656;2023-02-04T21:41:52;12.50;;;9.10;;
77402;SDS011;66472;53.046;8.656;2023-02-04T21:47:04;10.27;;;9.10;;
77402;SDS011;66472;53.046;8.656;2023-02-04T21:51:59;13.47;;;9.50;;
77402;SDS011;66472;53.046;8.656;2023-02-04T21:56:54;10.50;;;7.25;;
77402;SDS011;66472;53.046;8.656;2023-02-04T22:01:50;10.10;;;8.27;;
77402;SDS011;66472;53.046;8.656;2023-02-04T22:06:45;16.88;;;10.23;;
77402;SDS011;66472;53.046;8.656;2023-02-04T22:11:40;15.48;;;10.35;;
77402;SDS011;66472;53.046;8.656;2023-02-04T22:16:36;19.37;;;11.70;;
77402;SDS011;66472;53.046;8.656;2023-02-04T22:21:31;14.90;;;9.15;;
77402;SDS011;66472;53.046;8.656;2023-02-04T22:26:28;9.70;;;7.77;;
77402;SDS011;66472;53.046;8.656;2023-02-04T22:31:24;7.43;;;6.73;;
77402;SDS011;66472;53.046;8.656;2023-02-04T22:36:19;8.80;;;6.97;;
77402;SDS011;66472;53.046;8.656;2023-02-04T22:41:14;7.43;;;6.72;;
77402;SDS011;66472;53.046;8.656;2023-02-04T22:46:09;10.27;;;7.47;;
77402;SDS011;66472;53.046;8.656;2023-02-04T22:51:05;9.10;;;7.10;;
77402;SDS011;66472;53.046;8.656;2023-02-04T22:56:01;7.83;;;6.87;;
77402;SDS011;66472;53.046;8.656;2023-02-04T23:00:56;11.00;;;7.40;;
77402;SDS011;66472;53.046;8.656;2023-02-04T23:05:51;11.50;;;6.50;;
77402;SDS011;66472;53.046;8.656;2023-02-04T23:10:47;10.27;;;6.83;;
77402;SDS011;66472;53.046;8.656;2023-02-04T23:15:43;7.83;;;6.67;;
77402;SDS011;66472;53.046;8.656;2023-02-04T23:20:38;7.33;;;6.63;;
77402;SDS011;66472;53.046;8.656;2023-02-04T23:25:34;7.83;;;6.97;;
77402;SDS011;66472;53.046;8.656;2023-02-04T23:30:30;11.87;;;7.13;;
77402;SDS011;66472;53.046;8.656;2023-02-04T23:35:25;9.40;;;6.78;;
77402;SDS011;66472;53.046;8.656;2023-02-04T23:40:20;6.97;;;6.27;;
77402;SDS011;66472;53.046;8.656;2023-02-04T23:45:16;9.23;;;6.50;;
77402;SDS011;66472;53.046;8.656;2023-02-04T23:50:11;6.75;;;6.13;;
77402;SDS011;66472;53.046;8.656;2023-02-04T23:55:07;8.07;;;7.00;;
